Time;durP1;ratioP1;P1;durP2;ratioP2;P2;SDS_P1;SDS_P2;PMS_P1;PMS_P2;Temp;Humidity;BMP_temperature;BMP_pressure;BME280_temperature;BME280_humidity;BME280_pressure;Samples;Min_cycle;Max_cycle;Signal;HPM_P1;HPM_P2
2022/09/23 00:01:37;;;;;;;;;;;;;;;68.85;2.30;100683.91;5109600;28;20559;-68
2022/09/23 00:04:04;;;;;;;;;;;;;;;67.81;2.86;100681.84;5103831;28;20964;-68
2022/09/23 00:06:30;;;;;;;;;;;;;;;69.56;1.89;100671.66;5095812;28;20985;-67
2022/09/23 00:08:56;;;;;;;;;;;;;;;70.09;1.78;100682.41;5107180;28;19920;-68
2022/09/23 00:11:24;;;;;;;;;;;;;;;69.87;1.54;100672.72;5104691;28;19924;-70
2022/09/23 00:13:53;;;;;;;;;;;;;;;68.80;2.54;100667.34;5090347;28;19946;-68
2022/09/23 00:16:21;;;;;;;;;;;;;;;69.57;1.84;100673.19;5102279;28;19980;-68
2022/09/23 00:18:49;;;;;;;;;;;;;;;68.92;1.94;100679.69;5099743;28;19932;-69
2022/09/23 00:21:16;;;;;;;;;;;;;;;66.93;3.04;100683.06;5101841;28;20306;-69
2022/09/23 00:23:42;;;;;;;;;;;;;;;65.03;4.16;100667.47;5101263;28;19920;-69
2022/09/23 00:26:11;;;;;;;;;;;;;;;66.23;3.35;100667.84;5103031;28;20491;-70
2022/09/23 00:28:37;;;;;;;;;;;;;;;66.10;3.67;100677.56;5100859;28;19958;-69
2022/09/23 00:31:04;;;;;;;;;;;;;;;64.68;4.11;100664.00;5084464;28;19978;-70
2022/09/23 00:33:31;;;;;;;;;;;;;;;63.26;5.22;100668.88;5107802;28;20000;-70
2022/09/23 00:35:58;;;;;;;;;;;;;;;64.21;4.10;100670.16;5102838;28;19935;-69
2022/09/23 00:38:24;;;;;;;;;;;;;;;67.43;2.50;100676.50;5097764;28;19997;-69
2022/09/23 00:40:50;;;;;;;;;;;;;;;69.15;2.11;100682.09;5108037;28;19967;-70
2022/09/23 00:43:18;;;;;;;;;;;;;;;68.51;2.71;100690.00;5101356;28;19927;-68
2022/09/23 00:45:47;;;;;;;;;;;;;;;67.51;2.78;100681.28;5099763;28;20311;-70
2022/09/23 00:48:15;;;;;;;;;;;;;;;64.93;4.05;100680.94;5109947;28;20010;-67
2022/09/23 00:50:44;;;;;;;;;;;;;;;63.58;4.80;100690.78;5096791;28;19924;-68
2022/09/23 00:53:13;;;;;;;;;;;;;;;63.37;4.95;100679.09;5096058;28;19923;-71
2022/09/23 00:55:43;;;;;;;;;;;;;;;64.03;4.36;100681.69;5083842;28;20588;-70
2022/09/23 00:58:11;;;;;;;;;;;;;;;63.21;5.21;100684.78;5097846;28;19920;-68
2022/09/23 01:00:37;;;;;;;;;;;;;;;64.47;3.95;100680.59;5106076;28;19920;-64
2022/09/23 01:03:05;;;;;;;;;;;;;;;64.88;3.98;100682.13;5103766;28;19924;-69
2022/09/23 01:05:35;;;;;;;;;;;;;;;64.01;4.45;100687.47;5098958;28;20430;-68
2022/09/23 01:08:03;;;;;;;;;;;;;;;62.23;5.56;100700.41;5101923;28;20495;-69
2022/09/23 01:10:34;;;;;;;;;;;;;;;61.71;6.07;100698.31;5103843;28;19919;-68
2022/09/23 01:13:27;;;;;;;;;;;;;;;61.20;6.46;100697.63;5106060;28;19963;-67
2022/09/23 01:16:16;;;;;;;;;;;;;;;60.61;6.57;100699.19;5071909;28;19943;-69
2022/09/23 01:18:46;;;;;;;;;;;;;;;59.91;6.47;100695.31;5079098;28;20294;-69
2022/09/23 01:21:20;;;;;;;;;;;;;;;59.76;6.89;100696.34;5104075;28;19927;-66
2022/09/23 01:23:56;;;;;;;;;;;;;;;58.37;7.14;100699.06;5102028;28;19928;-69
2022/09/23 01:26:24;;;;;;;;;;;;;;;58.57;8.08;100700.72;5091506;28;19919;-66
2022/09/23 01:29:09;;;;;;;;;;;;;;;58.67;8.02;100700.81;5102112;27;19923;-68
2022/09/23 01:31:44;;;;;;;;;;;;;;;57.93;8.24;100693.84;5098764;28;19920;-68
2022/09/23 01:34:14;;;;;;;;;;;;;;;57.38;8.82;100703.66;5098559;28;19958;-70
2022/09/23 01:36:57;;;;;;;;;;;;;;;56.81;8.60;100703.63;5101535;28;20019;-69
2022/09/23 01:39:34;;;;;;;;;;;;;;;56.85;9.05;100710.66;5098577;28;19932;-68
2022/09/23 01:42:35;;;;;;;;;;;;;;;57.34;8.97;100706.25;5098173;28;19924;-69
2022/09/23 01:45:08;;;;;;;;;;;;;;;56.45;9.58;100710.59;5027801;28;20016;-67
2022/09/23 01:47:37;;;;;;;;;;;;;;;56.28;9.42;100705.41;5090573;27;19920;-68
2022/09/23 01:50:55;;;;;;;;;;;;;;;56.45;9.23;100715.66;5082994;28;19947;-67
2022/09/23 01:52:58;;;;;;;;;;;;;;;56.31;9.75;100712.22;5108959;27;20284;-68
2022/09/23 01:55:30;;;;;;;;;;;;;;;56.36;9.73;100717.81;5109813;27;19928;-67
2022/09/23 01:58:04;;;;;;;;;;;;;;;56.40;9.17;100713.75;5105620;28;19987;-70
2022/09/23 02:00:33;;;;;;;;;;;;;;;56.67;9.06;100716.94;5091553;28;20266;-67
2022/09/23 02:03:03;;;;;;;;;;;;;;;56.35;9.03;100715.50;5102185;28;20301;-68
2022/09/23 02:05:38;;;;;;;;;;;;;;;56.60;9.40;100722.25;5098799;28;19931;-65
2022/09/23 02:08:08;;;;;;;;;;;;;;;56.49;8.88;100721.88;5099335;28;19946;-68
2022/09/23 02:10:43;;;;;;;;;;;;;;;56.41;9.36;100718.22;5100546;28;19973;-65
2022/09/23 02:13:14;;;;;;;;;;;;;;;56.41;8.83;100724.06;5090102;28;20300;-68
2022/09/23 02:15:45;;;;;;;;;;;;;;;56.42;9.61;100725.63;5105313;27;20362;-69
2022/09/23 02:18:14;;;;;;;;;;;;;;;56.52;9.83;100726.56;5101599;27;19999;-69
2022/09/23 02:20:41;;;;;;;;;;;;;;;56.20;9.27;100725.06;5107884;28;20432;-66
2022/09/23 02:23:18;;;;;;;;;;;;;;;56.09;9.60;100730.53;5111126;28;20280;-68
2022/09/23 02:25:54;;;;;;;;;;;;;;;56.03;9.95;100731.53;5107415;28;19920;-66
2022/09/23 02:28:23;;;;;;;;;;;;;;;56.05;9.62;100728.81;5106807;28;19920;-67
2022/09/23 02:30:55;;;;;;;;;;;;;;;56.07;9.53;100736.97;5111014;28;20010;-67
2022/09/23 02:33:30;;;;;;;;;;;;;;;56.10;10.01;100735.78;5107339;27;19919;-68
2022/09/23 02:36:04;;;;;;;;;;;;;;;56.06;10.11;100742.03;5108920;28;19923;-69
2022/09/23 02:38:52;;;;;;;;;;;;;;;56.13;9.97;100746.28;5111289;28;19934;-67
2022/09/23 02:41:38;;;;;;;;;;;;;;;56.22;9.29;100748.63;5107472;28;20018;-67
2022/09/23 02:44:09;;;;;;;;;;;;;;;56.34;9.00;100743.91;5106795;28;19920;-68
2022/09/23 02:46:35;;;;;;;;;;;;;;;56.21;9.77;100752.94;5109370;28;19989;-68
2022/09/23 02:49:12;;;;;;;;;;;;;;;56.15;8.86;100755.22;5108590;28;19915;-68
2022/09/23 02:51:39;;;;;;;;;;;;;;;56.10;9.67;100758.34;5087520;28;20009;-68
2022/09/23 02:54:09;;;;;;;;;;;;;;;56.22;9.71;100759.53;5111308;28;19916;-67
2022/09/23 02:56:36;;;;;;;;;;;;;;;56.22;10.07;100760.31;5110732;28;20278;-69
2022/09/23 02:59:03;;;;;;;;;;;;;;;56.23;9.92;100764.78;5103677;28;19959;-67
2022/09/23 03:01:32;;;;;;;;;;;;;;;56.27;9.90;100768.09;5109630;28;20448;-68
2022/09/23 03:04:05;;;;;;;;;;;;;;;56.27;9.68;100779.75;5108449;28;19923;-68
2022/09/23 03:06:38;;;;;;;;;;;;;;;56.16;9.59;100780.13;5109991;28;20012;-69
2022/09/23 03:09:07;;;;;;;;;;;;;;;56.12;9.43;100779.75;5090868;28;20400;-68
2022/09/23 03:11:36;;;;;;;;;;;;;;;56.11;9.02;100781.13;5110304;28;19916;-68
2022/09/23 03:14:16;;;;;;;;;;;;;;;56.08;9.23;100793.97;5110920;28;20011;-69
2022/09/23 03:16:58;;;;;;;;;;;;;;;56.08;9.84;100799.03;5116900;27;19921;-68
2022/09/23 03:19:28;;;;;;;;;;;;;;;56.21;9.98;100799.63;5103980;28;19920;-69
2022/09/23 03:21:59;;;;;;;;;;;;;;;56.21;9.19;100799.63;5111909;28;19920;-69
2022/09/23 03:24:30;;;;;;;;;;;;;;;56.11;9.62;100810.31;5106812;28;19919;-68
2022/09/23 03:26:59;;;;;;;;;;;;;;;56.01;9.44;100810.09;5108360;28;19930;-69
2022/09/23 03:29:25;;;;;;;;;;;;;;;55.99;9.89;100809.91;5100051;28;19924;-67
2022/09/23 03:31:53;;;;;;;;;;;;;;;56.04;9.39;100814.78;5103178;28;19927;-68
2022/09/23 03:34:21;;;;;;;;;;;;;;;56.04;9.67;100819.84;5105657;28;19912;-67
2022/09/23 03:37:01;;;;;;;;;;;;;;;55.94;10.27;100821.78;5102310;28;19920;-68
2022/09/23 03:40:00;;;;;;;;;;;;;;;55.88;10.14;100824.09;5103175;28;19920;-67
2022/09/23 03:42:29;;;;;;;;;;;;;;;55.95;10.19;100823.34;5050884;28;19920;-68
2022/09/23 03:44:56;;;;;;;;;;;;;;;55.92;9.76;100825.28;5111981;27;19976;-69
2022/09/23 03:47:24;;;;;;;;;;;;;;;55.85;9.41;100831.13;5117657;27;19919;-67
2022/09/23 03:49:50;;;;;;;;;;;;;;;55.65;9.47;100836.50;5099548;27;19915;-67
2022/09/23 03:52:18;;;;;;;;;;;;;;;55.71;10.39;100836.34;5109611;27;19920;-68
2022/09/23 03:54:45;;;;;;;;;;;;;;;55.71;9.90;100834.22;5111726;27;20080;-67
2022/09/23 03:57:12;;;;;;;;;;;;;;;55.70;9.92;100838.50;5101528;28;19919;-68
2022/09/23 03:59:39;;;;;;;;;;;;;;;55.62;10.72;100852.25;5104709;28;19926;-68
2022/09/23 04:02:06;;;;;;;;;;;;;;;55.54;10.87;100842.72;5106122;28;19930;-67
2022/09/23 04:04:34;;;;;;;;;;;;;;;55.39;10.24;100854.34;5103085;28;19920;-69
2022/09/23 04:07:01;;;;;;;;;;;;;;;55.44;10.50;100854.13;5085997;28;19935;-68
2022/09/23 04:09:27;;;;;;;;;;;;;;;55.35;10.18;100853.94;5085797;28;19924;-68
2022/09/23 04:11:54;;;;;;;;;;;;;;;55.28;10.74;100851.75;5102457;28;20346;-68
2022/09/23 04:14:21;;;;;;;;;;;;;;;55.25;10.48;100849.97;5104926;28;20382;-67
2022/09/23 04:16:48;;;;;;;;;;;;;;;55.36;11.06;100855.50;5102638;28;19928;-68
2022/09/23 04:19:15;;;;;;;;;;;;;;;55.42;10.21;100853.16;5103169;28;19926;-68
2022/09/23 04:21:42;;;;;;;;;;;;;;;55.38;11.05;100855.69;5103194;28;20039;-67
2022/09/23 04:24:09;;;;;;;;;;;;;;;55.43;10.59;100866.38;5103765;28;19920;-68
2022/09/23 04:26:37;;;;;;;;;;;;;;;55.36;10.32;100870.06;5092782;28;20033;-68
2022/09/23 04:29:04;;;;;;;;;;;;;;;55.20;10.58;100863.38;5109888;28;19912;-67
2022/09/23 04:31:30;;;;;;;;;;;;;;;55.05;10.94;100872.84;5113456;28;19920;-68
2022/09/23 04:33:57;;;;;;;;;;;;;;;54.94;10.75;100873.13;5102482;28;20457;-67
2022/09/23 04:36:23;;;;;;;;;;;;;;;54.87;11.34;100873.88;5100508;28;19919;-66
2022/09/23 04:38:50;;;;;;;;;;;;;;;54.79;11.40;100884.72;5106858;28;19955;-66
2022/09/23 04:41:17;;;;;;;;;;;;;;;54.81;11.33;100882.00;5103262;28;19920;-67
2022/09/23 04:43:43;;;;;;;;;;;;;;;54.81;10.66;100887.84;5108427;28;19939;-67
2022/09/23 04:46:11;;;;;;;;;;;;;;;54.73;11.63;100889.91;5103050;28;19920;-67
2022/09/23 04:48:38;;;;;;;;;;;;;;;54.69;11.52;100895.34;5105526;27;19920;-68
2022/09/23 04:51:06;;;;;;;;;;;;;;;54.67;10.85;100892.22;5109260;28;20386;-67
2022/09/23 04:53:32;;;;;;;;;;;;;;;54.63;11.32;100900.50;5107170;28;20774;-67
2022/09/23 04:56:06;;;;;;;;;;;;;;;53.36;11.96;100915.50;5108319;28;19930;-67
2022/09/23 04:58:33;;;;;;;;;;;;;;;52.43;13.24;100911.75;5090134;28;20349;-67
2022/09/23 05:01:12;;;;;;;;;;;;;;;51.77;12.92;100915.16;5107209;28;20275;-67
2022/09/23 05:03:38;;;;;;;;;;;;;;;51.13;12.82;100919.94;5110321;27;19930;-67
2022/09/23 05:06:08;;;;;;;;;;;;;;;50.82;11.85;100918.47;5100280;28;19928;-68
2022/09/23 05:08:34;;;;;;;;;;;;;;;51.79;12.02;100917.50;5103041;28;19972;-68
2022/09/23 05:11:03;;;;;;;;;;;;;;;52.80;11.06;100920.31;5099201;27;19916;-66
2022/09/23 05:13:31;;;;;;;;;;;;;;;52.01;11.13;100916.38;5109700;28;19973;-67
2022/09/23 05:16:01;;;;;;;;;;;;;;;52.78;10.30;100919.28;5107048;27;20277;-66
2022/09/23 05:18:31;;;;;;;;;;;;;;;52.46;10.79;100917.25;5109226;28;20393;-67
2022/09/23 05:20:58;;;;;;;;;;;;;;;51.18;10.55;100905.41;5111032;28;19920;-68
2022/09/23 05:23:24;;;;;;;;;;;;;;;51.24;9.97;100916.91;5111658;28;19916;-67
2022/09/23 05:25:58;;;;;;;;;;;;;;;51.89;9.59;100912.84;5109784;28;19970;-67
2022/09/23 05:28:26;;;;;;;;;;;;;;;52.35;9.49;100910.81;5094154;28;19930;-67
2022/09/23 05:30:53;;;;;;;;;;;;;;;52.12;8.55;100917.00;5108467;28;19916;-66
2022/09/23 05:33:19;;;;;;;;;;;;;;;52.52;8.49;100908.41;5107436;28;20246;-66
2022/09/23 05:35:46;;;;;;;;;;;;;;;52.00;8.56;100906.91;5108099;28;19927;-66
2022/09/23 05:38:15;;;;;;;;;;;;;;;52.61;8.67;100905.09;5113099;28;19919;-66
2022/09/23 05:40:42;;;;;;;;;;;;;;;52.44;8.61;100913.34;5106977;28;19924;-67
2022/09/23 05:43:09;;;;;;;;;;;;;;;52.38;8.39;100909.72;5108281;28;19927;-66
2022/09/23 05:45:35;;;;;;;;;;;;;;;52.17;8.68;100915.34;5093818;28;20262;-66
2022/09/23 05:48:02;;;;;;;;;;;;;;;52.02;8.49;100912.91;5108173;27;19965;-66
2022/09/23 05:50:31;;;;;;;;;;;;;;;52.20;7.81;100912.13;5108879;28;19922;-67
2022/09/23 05:52:58;;;;;;;;;;;;;;;52.40;8.05;100912.84;5102760;27;19929;-66
2022/09/23 05:55:26;;;;;;;;;;;;;;;51.35;7.97;100908.88;5108386;27;19923;-66
2022/09/23 05:57:54;;;;;;;;;;;;;;;51.95;8.21;100910.69;5106337;27;19974;-67
2022/09/23 06:00:20;;;;;;;;;;;;;;;52.43;7.53;100905.94;5110248;27;20433;-66
2022/09/23 06:02:48;;;;;;;;;;;;;;;52.59;7.16;100906.97;5107181;27;20002;-67
2022/09/23 06:05:15;;;;;;;;;;;;;;;52.63;7.57;100902.41;5111529;27;19920;-66
2022/09/23 06:07:41;;;;;;;;;;;;;;;52.57;8.21;100903.84;5112435;27;20014;-67
2022/09/23 06:10:07;;;;;;;;;;;;;;;52.31;8.04;100914.06;5107158;28;20397;-66
2022/09/23 06:12:34;;;;;;;;;;;;;;;52.47;8.61;100912.22;5103314;27;19927;-67
2022/09/23 06:15:01;;;;;;;;;;;;;;;52.46;8.47;100910.66;5099146;27;19922;-67
2022/09/23 06:17:27;;;;;;;;;;;;;;;52.44;8.28;100914.13;5100373;28;19924;-66
2022/09/23 06:19:53;;;;;;;;;;;;;;;52.31;8.34;100925.66;5105914;28;19931;-66
2022/09/23 06:22:23;;;;;;;;;;;;;;;52.30;8.25;100915.38;5097820;28;19920;-66
2022/09/23 06:24:49;;;;;;;;;;;;;;;52.31;8.05;100928.56;5111540;28;20435;-67
2022/09/23 06:27:15;;;;;;;;;;;;;;;52.21;8.51;100922.38;5107063;28;19920;-67
2022/09/23 06:29:41;;;;;;;;;;;;;;;51.17;8.63;100924.09;5099780;28;19920;-66
2022/09/23 06:32:08;;;;;;;;;;;;;;;51.70;8.73;100920.78;5101060;28;19927;-68
2022/09/23 06:34:34;;;;;;;;;;;;;;;51.91;8.56;100924.72;5109788;27;19926;-67
2022/09/23 06:37:00;;;;;;;;;;;;;;;51.82;7.95;100922.22;5107327;28;19920;-67
2022/09/23 06:39:26;;;;;;;;;;;;;;;51.78;8.06;100927.56;5095244;28;19916;-65
2022/09/23 06:41:53;;;;;;;;;;;;;;;51.07;7.90;100920.81;5103073;28;20581;-66
2022/09/23 06:44:19;;;;;;;;;;;;;;;50.95;8.69;100921.44;5097168;27;20033;-66
2022/09/23 06:46:45;;;;;;;;;;;;;;;51.03;8.59;100917.44;5109673;27;19920;-66
2022/09/23 06:49:12;;;;;;;;;;;;;;;51.37;8.83;100917.03;5104839;27;19966;-65
2022/09/23 06:51:39;;;;;;;;;;;;;;;50.55;9.07;100912.38;5099500;28;19920;-64
2022/09/23 06:54:05;;;;;;;;;;;;;;;50.70;8.70;100918.56;5104816;28;19920;-66
2022/09/23 06:56:32;;;;;;;;;;;;;;;50.43;8.71;100922.47;5102072;28;20405;-65
2022/09/23 06:58:58;;;;;;;;;;;;;;;51.05;8.07;100920.56;5100218;28;19919;-64
2022/09/23 07:01:24;;;;;;;;;;;;;;;50.80;8.46;100913.19;5103013;28;19920;-64
2022/09/23 07:03:50;;;;;;;;;;;;;;;50.68;8.52;100914.63;5112511;28;20055;-65
2022/09/23 07:06:17;;;;;;;;;;;;;;;50.11;8.25;100907.78;5096897;28;19984;-65
2022/09/23 07:08:45;;;;;;;;;;;;;;;49.85;8.88;100906.06;5109048;28;19961;-65
2022/09/23 07:11:12;;;;;;;;;;;;;;;49.93;8.55;100908.41;5111317;27;19920;-65
2022/09/23 07:13:39;;;;;;;;;;;;;;;49.83;8.97;100911.63;5108973;27;19916;-65
2022/09/23 07:16:06;;;;;;;;;;;;;;;49.75;8.69;100909.84;5126496;27;19919;-65
2022/09/23 07:18:33;;;;;;;;;;;;;;;49.19;8.73;100916.63;5100265;27;19919;-65
2022/09/23 07:21:07;;;;;;;;;;;;;;;49.27;9.22;100903.22;5119609;27;19927;-66
2022/09/23 07:23:33;;;;;;;;;;;;;;;49.79;8.69;100902.44;5117534;27;19927;-65
2022/09/23 07:26:00;;;;;;;;;;;;;;;49.79;8.33;100905.34;5102531;27;19920;-65
2022/09/23 07:28:27;;;;;;;;;;;;;;;48.63;9.23;100902.31;5127202;27;19997;-65
2022/09/23 07:30:55;;;;;;;;;;;;;;;48.79;9.62;100899.94;5106035;27;19915;-65
2022/09/23 07:33:21;;;;;;;;;;;;;;;48.67;9.40;100896.31;5118628;27;19971;-66
2022/09/23 07:35:47;;;;;;;;;;;;;;;48.31;9.29;100903.94;5099391;28;19920;-66
2022/09/23 07:38:14;;;;;;;;;;;;;;;48.75;8.95;100900.22;5109846;28;19920;-65
2022/09/23 07:40:40;;;;;;;;;;;;;;;48.92;8.89;100886.53;5097559;28;20015;-66
2022/09/23 07:43:07;;;;;;;;;;;;;;;49.70;8.08;100896.19;5105068;28;19920;-66
2022/09/23 07:45:33;;;;;;;;;;;;;;;50.08;8.18;100891.47;5104776;28;19916;-65
2022/09/23 07:48:00;;;;;;;;;;;;;;;50.61;8.04;100897.84;5094868;28;19924;-65
2022/09/23 07:50:26;;;;;;;;;;;;;;;49.62;8.57;100907.53;5098789;27;19934;-66
2022/09/23 07:52:53;;;;;;;;;;;;;;;49.49;8.39;100904.44;5120729;27;19920;-66
2022/09/23 07:55:19;;;;;;;;;;;;;;;49.01;8.84;100902.78;5112826;27;20347;-65
2022/09/23 07:57:45;;;;;;;;;;;;;;;49.54;8.16;100913.06;5105941;27;19931;-65
2022/09/23 08:00:12;;;;;;;;;;;;;;;49.59;8.08;100897.03;5126266;27;20268;-65
2022/09/23 08:02:39;;;;;;;;;;;;;;;49.85;7.96;100908.19;5101221;27;20423;-66
2022/09/23 08:05:06;;;;;;;;;;;;;;;49.92;7.65;100901.84;5113815;27;19922;-65
2022/09/23 08:07:35;;;;;;;;;;;;;;;49.26;8.85;100898.75;5113268;28;19927;-66
2022/09/23 08:10:01;;;;;;;;;;;;;;;48.52;9.05;100899.44;5112783;28;19969;-66
2022/09/23 08:12:30;;;;;;;;;;;;;;;48.71;9.31;100900.50;5109863;28;20395;-66
2022/09/23 08:14:58;;;;;;;;;;;;;;;48.94;9.47;100892.56;5106268;27;19919;-66
2022/09/23 08:17:25;;;;;;;;;;;;;;;49.36;9.29;100901.34;5093092;28;19950;-65
2022/09/23 08:19:51;;;;;;;;;;;;;;;49.02;9.51;100895.72;5121363;27;19930;-66
2022/09/23 08:22:18;;;;;;;;;;;;;;;49.33;8.92;100894.53;5081263;28;19967;-66
2022/09/23 08:24:44;;;;;;;;;;;;;;;49.50;9.11;100891.56;5122939;28;20426;-65
2022/09/23 08:27:11;;;;;;;;;;;;;;;49.28;9.23;100898.22;5110193;28;20014;-66
2022/09/23 08:29:37;;;;;;;;;;;;;;;49.73;9.25;100892.22;5107906;28;20302;-66
2022/09/23 08:32:04;;;;;;;;;;;;;;;49.52;9.14;100891.81;5082178;28;19940;-66
2022/09/23 08:34:30;;;;;;;;;;;;;;;49.59;9.03;100886.25;5091257;28;20279;-66
2022/09/23 08:36:56;;;;;;;;;;;;;;;49.65;9.75;100892.03;5099137;28;19927;-66
2022/09/23 08:39:22;;;;;;;;;;;;;;;49.91;9.35;100886.56;5101851;28;20297;-65
2022/09/23 08:41:52;;;;;;;;;;;;;;;49.68;9.75;100888.06;5120662;28;19964;-67
2022/09/23 08:44:22;;;;;;;;;;;;;;;50.01;9.67;100897.84;5107322;28;19920;-65
2022/09/23 08:46:51;;;;;;;;;;;;;;;50.05;9.34;100886.78;5103669;28;20026;-66
2022/09/23 08:49:22;;;;;;;;;;;;;;;50.16;9.62;100887.47;5113475;28;20291;-65
2022/09/23 08:51:53;;;;;;;;;;;;;;;49.62;9.91;100887.28;5120434;28;19946;-64
2022/09/23 08:54:20;;;;;;;;;;;;;;;49.94;9.49;100890.53;5099134;28;19927;-65
2022/09/23 08:56:50;;;;;;;;;;;;;;;50.09;9.77;100893.03;5121982;28;19920;-65
2022/09/23 08:59:16;;;;;;;;;;;;;;;49.62;9.51;100895.97;5111482;28;19987;-65
2022/09/23 09:01:44;;;;;;;;;;;;;;;50.02;9.22;100893.63;5105936;28;19920;-64
2022/09/23 09:04:26;;;;;;;;;;;;;;;49.61;10.25;100894.41;5125747;28;20014;-65
2022/09/23 09:07:00;;;;;;;;;;;;;;;50.08;9.48;100888.56;5104749;28;19920;-65
2022/09/23 09:09:29;;;;;;;;;;;;;;;49.94;9.43;100896.31;5110749;28;20367;-65
2022/09/23 09:12:15;;;;;;;;;;;;;;;50.11;9.88;100890.41;5122280;28;19954;-64
2022/09/23 09:14:42;;;;;;;;;;;;;;;50.28;9.33;100893.16;5096581;28;20064;-65
2022/09/23 09:17:23;;;;;;;;;;;;;;;50.00;10.00;100891.28;5103884;28;19920;-64
2022/09/23 09:20:00;;;;;;;;;;;;;;;49.90;9.86;100892.91;5120382;28;19968;-65
2022/09/23 09:22:47;;;;;;;;;;;;;;;49.73;9.95;100884.34;5099063;28;20328;-63
2022/09/23 09:25:32;;;;;;;;;;;;;;;49.85;9.58;100890.84;5114071;28;19961;-63
2022/09/23 09:27:58;;;;;;;;;;;;;;;49.06;10.32;100883.88;5123090;27;19920;-64
2022/09/23 09:30:24;;;;;;;;;;;;;;;48.09;10.94;100896.81;5101252;27;20320;-65
2022/09/23 09:33:00;;;;;;;;;;;;;;;49.10;10.27;100881.50;5125588;27;20014;-66
2022/09/23 09:35:27;;;;;;;;;;;;;;;49.22;10.09;100880.94;5104481;28;19989;-65
2022/09/23 09:37:54;;;;;;;;;;;;;;;48.54;10.50;100888.16;5125430;27;19915;-66
2022/09/23 09:40:21;;;;;;;;;;;;;;;49.45;10.10;100870.06;5102169;27;19971;-66
2022/09/23 09:42:48;;;;;;;;;;;;;;;49.46;10.30;100877.41;5125197;27;19916;-66
2022/09/23 09:45:18;;;;;;;;;;;;;;;49.90;9.84;100875.56;5114088;27;19972;-65
2022/09/23 09:47:48;;;;;;;;;;;;;;;50.26;9.37;100873.44;5108777;27;20339;-65
2022/09/23 09:50:37;;;;;;;;;;;;;;;50.40;9.35;100875.16;5128837;27;19919;-66
2022/09/23 09:53:20;;;;;;;;;;;;;;;50.59;9.72;100871.56;5110993;27;19962;-66
2022/09/23 09:56:07;;;;;;;;;;;;;;;50.65;9.56;100875.19;5108002;27;19920;-65
2022/09/23 09:58:42;;;;;;;;;;;;;;;50.23;10.01;100880.31;5114622;27;20397;-64
2022/09/23 10:01:22;;;;;;;;;;;;;;;50.32;10.15;100877.06;5112473;27;19973;-66
2022/09/23 10:03:50;;;;;;;;;;;;;;;50.32;9.52;100877.06;5115744;27;19923;-66
2022/09/23 10:06:19;;;;;;;;;;;;;;;50.47;9.47;100870.91;5081305;27;19924;-66
2022/09/23 10:09:06;;;;;;;;;;;;;;;50.54;10.08;100878.19;5125282;27;19916;-66
2022/09/23 10:11:32;;;;;;;;;;;;;;;50.41;10.00;100873.84;5118563;27;20014;-66
2022/09/23 10:14:17;;;;;;;;;;;;;;;50.46;9.60;100875.91;5104552;27;20386;-66
2022/09/23 10:16:44;;;;;;;;;;;;;;;50.48;9.44;100873.25;5104558;27;20006;-66
2022/09/23 10:19:14;;;;;;;;;;;;;;;50.45;9.97;100876.44;5117737;27;19924;-65
2022/09/23 10:21:41;;;;;;;;;;;;;;;50.48;9.64;100876.16;5120330;27;20419;-66
2022/09/23 10:24:19;;;;;;;;;;;;;;;50.56;9.47;100872.66;5115055;27;19970;-66
2022/09/23 10:27:10;;;;;;;;;;;;;;;50.31;9.72;100880.50;5099601;28;19931;-66
2022/09/23 10:29:38;;;;;;;;;;;;;;;50.32;9.79;100877.06;5083001;28;19920;-65
2022/09/23 10:32:13;;;;;;;;;;;;;;;50.06;10.13;100871.00;5110317;28;20375;-65
2022/09/23 10:34:42;;;;;;;;;;;;;;;49.96;10.42;100878.41;5103189;27;19923;-65
2022/09/23 10:37:19;;;;;;;;;;;;;;;49.94;10.49;100883.97;5117932;27;19919;-65
2022/09/23 10:48:41;;;;;;;;;;;;;;;49.48;10.46;100876.88;5126229;27;19927;-65
2022/09/23 10:51:13;;;;;;;;;;;;;;;49.76;9.60;100871.72;5109314;27;19968;-65
2022/09/23 10:53:48;;;;;;;;;;;;;;;49.59;10.39;100874.72;5107258;27;20374;-66
2022/09/23 10:56:33;;;;;;;;;;;;;;;49.49;9.69;100881.31;5109623;28;20275;-65
2022/09/23 10:59:03;;;;;;;;;;;;;;;49.37;9.80;100876.91;5101039;28;20393;-66
2022/09/23 11:01:29;;;;;;;;;;;;;;;49.34;10.21;100880.88;5102639;28;19916;-66
2022/09/23 11:04:15;;;;;;;;;;;;;;;49.35;9.60;100880.34;5113258;27;19941;-66
2022/09/23 11:06:47;;;;;;;;;;;;;;;49.41;10.18;100886.13;5098190;28;19927;-65
2022/09/23 11:09:26;;;;;;;;;;;;;;;49.29;9.58;100883.28;5104840;28;19920;-65
2022/09/23 11:11:53;;;;;;;;;;;;;;;49.33;9.72;100879.31;5115385;27;19920;-65
2022/09/23 11:14:22;;;;;;;;;;;;;;;49.33;9.63;100885.88;5094031;28;20369;-65
2022/09/23 11:17:07;;;;;;;;;;;;;;;49.34;9.46;100892.44;5105075;27;19916;-65
2022/09/23 11:19:49;;;;;;;;;;;;;;;49.38;9.96;100887.16;5110073;27;20069;-65
2022/09/23 11:22:36;;;;;;;;;;;;;;;49.41;10.06;100880.34;5127132;27;19919;-66
2022/09/23 11:25:15;;;;;;;;;;;;;;;49.40;10.05;100885.34;5087606;28;20389;-65
2022/09/23 11:28:04;;;;;;;;;;;;;;;49.23;10.02;100888.28;5119758;27;20268;-65
2022/09/23 11:30:43;;;;;;;;;;;;;;;49.22;9.86;100883.03;5099685;27;19923;-65
2022/09/23 11:33:12;;;;;;;;;;;;;;;49.17;10.44;100884.59;5120536;27;19919;-66
2022/09/23 11:35:40;;;;;;;;;;;;;;;49.15;10.13;100893.03;5100580;28;19931;-67
2022/09/23 11:38:10;;;;;;;;;;;;;;;49.18;10.67;100889.06;5126453;27;20437;-65
2022/09/23 11:40:39;;;;;;;;;;;;;;;49.21;10.18;100893.00;5096956;28;19919;-65
2022/09/23 11:43:06;;;;;;;;;;;;;;;49.17;10.51;100896.16;5086923;28;20400;-65
2022/09/23 11:45:36;;;;;;;;;;;;;;;49.15;10.52;100887.25;5116675;27;19954;-65
2022/09/23 11:48:07;;;;;;;;;;;;;;;49.13;10.52;100887.00;5101402;27;20002;-66
2022/09/23 11:50:37;;;;;;;;;;;;;;;49.06;10.02;100895.44;5096498;28;19916;-64
2022/09/23 11:53:35;;;;;;;;;;;;;;;49.03;10.48;100897.28;5086648;28;19916;-65
2022/09/23 11:56:07;;;;;;;;;;;;;;;48.98;9.55;100901.75;5054417;28;19978;-65
2022/09/23 11:58:45;;;;;;;;;;;;;;;48.98;9.71;100907.50;5096431;28;20250;-64
2022/09/23 12:01:19;;;;;;;;;;;;;;;48.88;8.83;100909.09;5104338;28;20057;-65
2022/09/23 12:04:11;;;;;;;;;;;;;;;48.90;9.50;100906.47;5110827;28;20405;-65
2022/09/23 12:06:41;;;;;;;;;;;;;;;48.70;8.93;100915.44;5073289;28;20293;-65
2022/09/23 12:09:13;;;;;;;;;;;;;;;48.62;8.67;100908.63;5104773;28;19996;-65
2022/09/23 12:11:43;;;;;;;;;;;;;;;48.67;8.70;100910.72;5105432;28;20301;-65
2022/09/23 12:14:16;;;;;;;;;;;;;;;48.66;9.08;100915.72;5095683;28;20353;-64
2022/09/23 12:16:49;;;;;;;;;;;;;;;48.63;9.22;100910.97;5108090;28;20026;-64
2022/09/23 12:19:37;;;;;;;;;;;;;;;48.61;9.16;100916.50;5101867;28;19926;-65
2022/09/23 12:22:15;;;;;;;;;;;;;;;48.64;8.49;100923.31;5096350;28;19920;-65
2022/09/23 12:24:46;;;;;;;;;;;;;;;48.54;8.63;100931.44;5109100;28;19923;-65
2022/09/23 12:27:36;;;;;;;;;;;;;;;48.31;8.49;100922.03;5103685;28;19975;-64
2022/09/23 12:30:14;;;;;;;;;;;;;;;48.12;8.85;100923.78;5113875;28;20292;-66
2022/09/23 12:32:41;;;;;;;;;;;;;;;48.08;9.01;100918.28;5103877;28;20018;-66
2022/09/23 12:35:20;;;;;;;;;;;;;;;48.09;8.89;100919.88;5104432;28;19927;-65
2022/09/23 12:37:47;;;;;;;;;;;;;;;48.17;8.78;100934.56;5106192;28;19941;-65
2022/09/23 12:40:17;;;;;;;;;;;;;;;48.17;9.18;100930.91;5095521;28;20007;-65
2022/09/23 12:42:45;;;;;;;;;;;;;;;48.08;8.54;100924.06;5107763;28;20383;-65
2022/09/23 12:45:33;;;;;;;;;;;;;;;48.01;9.09;100930.34;5098077;28;19917;-68
2022/09/23 12:48:02;;;;;;;;;;;;;;;48.03;8.20;100941.34;5104464;28;20184;-67
2022/09/23 12:50:46;;;;;;;;;;;;;;;47.89;7.68;100934.50;5102592;28;19935;-66
2022/09/23 12:53:31;;;;;;;;;;;;;;;47.94;8.31;100948.16;5103872;28;20301;-67
2022/09/23 12:55:58;;;;;;;;;;;;;;;48.03;8.56;100950.78;5085122;28;20273;-67
2022/09/23 12:58:39;;;;;;;;;;;;;;;48.02;7.96;100952.09;5102267;28;20003;-66
2022/09/23 13:01:06;;;;;;;;;;;;;;;47.98;8.34;100951.56;5102530;28;19920;-65
2022/09/23 13:09:02;;;;;;;;;;;;;;;47.84;8.42;100955.44;5106095;28;19916;-66
2022/09/23 13:11:30;;;;;;;;;;;;;;;47.82;8.26;100958.06;5106933;28;20282;-64
2022/09/23 13:13:59;;;;;;;;;;;;;;;47.85;8.06;100962.78;5104546;28;19916;-66
2022/09/23 13:16:25;;;;;;;;;;;;;;;47.84;8.58;100964.09;5106143;28;19967;-66
2022/09/23 13:18:55;;;;;;;;;;;;;;;47.85;8.97;100965.66;5107245;28;19924;-67